sensor_id;sensor_type;location;lat;lon;timestamp;P1;durP1;ratioP1;P2;durP2;ratioP2
8046;SDS011;67150;42.516;23.358;2023-06-26T00:01:11;8.93;;;8.00;;
8046;SDS011;67150;42.516;23.358;2023-06-26T00:03:39;9.40;;;8.37;;
8046;SDS011;67150;42.516;23.358;2023-06-26T00:06:06;8.97;;;8.00;;
8046;SDS011;67150;42.516;23.358;2023-06-26T00:08:33;10.43;;;8.53;;
8046;SDS011;67150;42.516;23.358;2023-06-26T00:11:02;9.20;;;8.10;;
8046;SDS011;67150;42.516;23.358;2023-06-26T00:13:29;9.23;;;8.07;;
8046;SDS011;67150;42.516;23.358;2023-06-26T00:15:56;9.20;;;7.93;;
8046;SDS011;67150;42.516;23.358;2023-06-26T00:18:28;10.03;;;8.00;;
8046;SDS011;67150;42.516;23.358;2023-06-26T00:20:55;9.77;;;7.90;;
8046;SDS011;67150;42.516;23.358;2023-06-26T00:23:23;9.67;;;7.57;;
8046;SDS011;67150;42.516;23.358;2023-06-26T00:25:50;9.27;;;7.73;;
8046;SDS011;67150;42.516;23.358;2023-06-26T00:28:19;9.13;;;8.00;;
8046;SDS011;67150;42.516;23.358;2023-06-26T00:30:46;9.87;;;8.17;;
8046;SDS011;67150;42.516;23.358;2023-06-26T00:33:13;9.07;;;7.77;;
8046;SDS011;67150;42.516;23.358;2023-06-26T00:35:41;9.93;;;7.63;;
8046;SDS011;67150;42.516;23.358;2023-06-26T00:38:08;8.40;;;7.50;;
8046;SDS011;67150;42.516;23.358;2023-06-26T00:40:35;8.90;;;7.70;;
8046;SDS011;67150;42.516;23.358;2023-06-26T00:43:02;9.07;;;7.83;;
8046;SDS011;67150;42.516;23.358;2023-06-26T00:45:31;8.33;;;7.33;;
8046;SDS011;67150;42.516;23.358;2023-06-26T00:47:58;10.10;;;8.00;;
8046;SDS011;67150;42.516;23.358;2023-06-26T00:50:26;9.17;;;8.17;;
8046;SDS011;67150;42.516;23.358;2023-06-26T00:52:54;9.37;;;8.20;;
8046;SDS011;67150;42.516;23.358;2023-06-26T00:55:25;9.73;;;8.70;;
8046;SDS011;67150;42.516;23.358;2023-06-26T00:57:53;8.77;;;7.87;;
8046;SDS011;67150;42.516;23.358;2023-06-26T01:00:21;9.17;;;8.17;;
8046;SDS011;67150;42.516;23.358;2023-06-26T01:02:50;11.10;;;8.27;;
8046;SDS011;67150;42.516;23.358;2023-06-26T01:05:17;9.47;;;8.47;;
8046;SDS011;67150;42.516;23.358;2023-06-26T01:07:46;9.47;;;8.57;;
8046;SDS011;67150;42.516;23.358;2023-06-26T01:10:14;9.97;;;8.83;;
8046;SDS011;67150;42.516;23.358;2023-06-26T01:12:42;9.90;;;8.90;;
8046;SDS011;67150;42.516;23.358;2023-06-26T01:15:10;10.07;;;9.03;;
8046;SDS011;67150;42.516;23.358;2023-06-26T01:17:37;12.90;;;9.37;;
8046;SDS011;67150;42.516;23.358;2023-06-26T01:20:11;10.83;;;9.57;;
8046;SDS011;67150;42.516;23.358;2023-06-26T01:22:43;10.70;;;9.43;;
8046;SDS011;67150;42.516;23.358;2023-06-26T01:25:17;11.30;;;9.27;;
8046;SDS011;67150;42.516;23.358;2023-06-26T01:27:52;10.60;;;9.20;;
8046;SDS011;67150;42.516;23.358;2023-06-26T01:30:21;10.43;;;9.43;;
8046;SDS011;67150;42.516;23.358;2023-06-26T01:32:49;10.43;;;9.23;;
8046;SDS011;67150;42.516;23.358;2023-06-26T01:35:17;11.50;;;9.83;;
8046;SDS011;67150;42.516;23.358;2023-06-26T01:37:44;10.53;;;9.37;;
8046;SDS011;67150;42.516;23.358;2023-06-26T01:40:11;10.67;;;9.37;;
8046;SDS011;67150;42.516;23.358;2023-06-26T01:42:39;10.67;;;9.57;;
8046;SDS011;67150;42.516;23.358;2023-06-26T01:45:09;11.93;;;8.97;;
8046;SDS011;67150;42.516;23.358;2023-06-26T01:47:43;9.93;;;8.93;;
8046;SDS011;67150;42.516;23.358;2023-06-26T01:50:17;10.53;;;9.13;;
8046;SDS011;67150;42.516;23.358;2023-06-26T01:52:51;11.77;;;9.67;;
8046;SDS011;67150;42.516;23.358;2023-06-26T01:55:26;9.73;;;8.73;;
8046;SDS011;67150;42.516;23.358;2023-06-26T01:58:01;11.07;;;9.83;;
8046;SDS011;67150;42.516;23.358;2023-06-26T02:00:30;10.03;;;9.03;;
8046;SDS011;67150;42.516;23.358;2023-06-26T02:02:58;9.73;;;8.73;;
8046;SDS011;67150;42.516;23.358;2023-06-26T02:05:26;10.77;;;9.67;;
8046;SDS011;67150;42.516;23.358;2023-06-26T02:07:56;11.37;;;9.30;;
8046;SDS011;67150;42.516;23.358;2023-06-26T02:10:23;10.90;;;9.70;;
8046;SDS011;67150;42.516;23.358;2023-06-26T02:12:50;11.10;;;9.83;;
8046;SDS011;67150;42.516;23.358;2023-06-26T02:15:17;11.23;;;9.10;;
8046;SDS011;67150;42.516;23.358;2023-06-26T02:17:46;11.37;;;9.77;;
8046;SDS011;67150;42.516;23.358;2023-06-26T02:20:14;9.37;;;8.40;;
8046;SDS011;67150;42.516;23.358;2023-06-26T02:22:41;9.87;;;8.87;;
8046;SDS011;67150;42.516;23.358;2023-06-26T02:25:08;11.60;;;9.60;;
8046;SDS011;67150;42.516;23.358;2023-06-26T02:27:37;10.53;;;9.43;;
8046;SDS011;67150;42.516;23.358;2023-06-26T02:30:05;9.83;;;8.83;;
8046;SDS011;67150;42.516;23.358;2023-06-26T02:32:35;9.37;;;8.43;;
8046;SDS011;67150;42.516;23.358;2023-06-26T02:35:04;9.80;;;8.80;;
8046;SDS011;67150;42.516;23.358;2023-06-26T02:37:32;9.57;;;8.03;;
8046;SDS011;67150;42.516;23.358;2023-06-26T02:39:59;9.10;;;8.20;;
8046;SDS011;67150;42.516;23.358;2023-06-26T02:42:26;9.13;;;8.20;;
8046;SDS011;67150;42.516;23.358;2023-06-26T02:44:53;9.63;;;8.63;;
8046;SDS011;67150;42.516;23.358;2023-06-26T02:47:21;9.70;;;8.30;;
8046;SDS011;67150;42.516;23.358;2023-06-26T02:49:48;9.43;;;8.20;;
8046;SDS011;67150;42.516;23.358;2023-06-26T02:52:16;9.23;;;8.13;;
8046;SDS011;67150;42.516;23.358;2023-06-26T02:54:44;8.20;;;7.40;;
8046;SDS011;67150;42.516;23.358;2023-06-26T02:57:11;8.27;;;7.47;;
8046;SDS011;67150;42.516;23.358;2023-06-26T02:59:40;8.70;;;7.10;;
8046;SDS011;67150;42.516;23.358;2023-06-26T03:02:07;9.73;;;7.40;;
8046;SDS011;67150;42.516;23.358;2023-06-26T03:04:34;8.20;;;7.40;;
8046;SDS011;67150;42.516;23.358;2023-06-26T03:07:04;7.77;;;6.97;;
8046;SDS011;67150;42.516;23.358;2023-06-26T03:09:33;8.53;;;7.57;;
8046;SDS011;67150;42.516;23.358;2023-06-26T03:12:00;7.63;;;6.83;;
8046;SDS011;67150;42.516;23.358;2023-06-26T03:14:27;7.20;;;6.50;;
8046;SDS011;67150;42.516;23.358;2023-06-26T03:16:55;7.93;;;7.13;;
8046;SDS011;67150;42.516;23.358;2023-06-26T03:19:24;7.77;;;7.07;;
8046;SDS011;67150;42.516;23.358;2023-06-26T03:21:51;8.27;;;7.10;;
8046;SDS011;67150;42.516;23.358;2023-06-26T03:24:20;7.67;;;6.87;;
8046;SDS011;67150;42.516;23.358;2023-06-26T03:26:49;8.23;;;7.07;;
8046;SDS011;67150;42.516;23.358;2023-06-26T03:29:16;10.57;;;7.07;;
8046;SDS011;67150;42.516;23.358;2023-06-26T03:31:44;8.10;;;7.10;;
8046;SDS011;67150;42.516;23.358;2023-06-26T03:34:11;7.43;;;6.73;;
8046;SDS011;67150;42.516;23.358;2023-06-26T03:36:41;7.67;;;6.97;;
8046;SDS011;67150;42.516;23.358;2023-06-26T03:39:08;8.17;;;7.20;;
8046;SDS011;67150;42.516;23.358;2023-06-26T03:41:36;8.47;;;7.20;;
8046;SDS011;67150;42.516;23.358;2023-06-26T03:53:15;7.87;;;7.17;;
8046;SDS011;67150;42.516;23.358;2023-06-26T03:55:42;8.50;;;7.53;;
8046;SDS011;67150;42.516;23.358;2023-06-26T03:58:09;8.10;;;7.13;;
8046;SDS011;67150;42.516;23.358;2023-06-26T04:00:37;7.93;;;7.13;;
8046;SDS011;67150;42.516;23.358;2023-06-26T04:03:05;7.57;;;6.87;;
8046;SDS011;67150;42.516;23.358;2023-06-26T04:05:33;8.73;;;7.90;;
8046;SDS011;67150;42.516;23.358;2023-06-26T04:08:01;7.97;;;7.20;;
8046;SDS011;67150;42.516;23.358;2023-06-26T04:10:29;8.20;;;7.40;;
8046;SDS011;67150;42.516;23.358;2023-06-26T04:12:57;8.67;;;7.77;;
8046;SDS011;67150;42.516;23.358;2023-06-26T04:15:24;8.30;;;7.47;;
8046;SDS011;67150;42.516;23.358;2023-06-26T04:17:51;7.83;;;7.13;;
8046;SDS011;67150;42.516;23.358;2023-06-26T04:20:19;8.80;;;8.00;;
8046;SDS011;67150;42.516;23.358;2023-06-26T04:22:46;7.90;;;7.20;;
8046;SDS011;67150;42.516;23.358;2023-06-26T04:25:13;8.83;;;7.93;;
8046;SDS011;67150;42.516;23.358;2023-06-26T04:27:42;8.37;;;7.60;;
8046;SDS011;67150;42.516;23.358;2023-06-26T04:30:10;9.50;;;7.80;;
8046;SDS011;67150;42.516;23.358;2023-06-26T04:32:38;8.90;;;8.10;;
8046;SDS011;67150;42.516;23.358;2023-06-26T04:35:05;8.80;;;8.00;;
8046;SDS011;67150;42.516;23.358;2023-06-26T04:37:33;10.47;;;8.40;;
8046;SDS011;67150;42.516;23.358;2023-06-26T04:40:02;9.30;;;8.33;;
8046;SDS011;67150;42.516;23.358;2023-06-26T04:42:30;8.40;;;7.60;;
8046;SDS011;67150;42.516;23.358;2023-06-26T04:44:59;8.87;;;8.07;;
8046;SDS011;67150;42.516;23.358;2023-06-26T04:47:28;8.23;;;7.43;;
8046;SDS011;67150;42.516;23.358;2023-06-26T04:49:55;8.90;;;8.13;;
8046;SDS011;67150;42.516;23.358;2023-06-26T04:52:22;8.87;;;7.97;;
8046;SDS011;67150;42.516;23.358;2023-06-26T04:54:50;8.90;;;8.00;;
8046;SDS011;67150;42.516;23.358;2023-06-26T04:57:17;8.97;;;8.07;;
8046;SDS011;67150;42.516;23.358;2023-06-26T04:59:44;8.47;;;7.67;;
8046;SDS011;67150;42.516;23.358;2023-06-26T05:02:13;9.00;;;8.10;;
8046;SDS011;67150;42.516;23.358;2023-06-26T05:04:40;9.40;;;8.50;;
8046;SDS011;67150;42.516;23.358;2023-06-26T05:07:08;8.60;;;7.80;;
8046;SDS011;67150;42.516;23.358;2023-06-26T05:09:35;9.40;;;8.50;;
8046;SDS011;67150;42.516;23.358;2023-06-26T05:12:02;9.40;;;8.50;;
8046;SDS011;67150;42.516;23.358;2023-06-26T05:14:30;8.73;;;7.97;;
8046;SDS011;67150;42.516;23.358;2023-06-26T05:16:58;8.90;;;8.10;;
8046;SDS011;67150;42.516;23.358;2023-06-26T05:19:26;9.63;;;8.13;;
8046;SDS011;67150;42.516;23.358;2023-06-26T05:21:54;8.67;;;7.87;;
8046;SDS011;67150;42.516;23.358;2023-06-26T05:24:22;9.87;;;8.83;;
8046;SDS011;67150;42.516;23.358;2023-06-26T05:26:51;8.80;;;8.00;;
8046;SDS011;67150;42.516;23.358;2023-06-26T05:29:19;9.60;;;8.80;;
8046;SDS011;67150;42.516;23.358;2023-06-26T05:31:46;9.43;;;8.60;;
8046;SDS011;67150;42.516;23.358;2023-06-26T05:34:15;9.37;;;8.57;;
8046;SDS011;67150;42.516;23.358;2023-06-26T05:36:47;9.20;;;8.40;;
8046;SDS011;67150;42.516;23.358;2023-06-26T05:39:17;9.27;;;8.37;;
8046;SDS011;67150;42.516;23.358;2023-06-26T05:41:45;9.63;;;8.70;;
8046;SDS011;67150;42.516;23.358;2023-06-26T05:44:13;9.97;;;9.07;;
8046;SDS011;67150;42.516;23.358;2023-06-26T05:46:40;9.60;;;8.80;;
8046;SDS011;67150;42.516;23.358;2023-06-26T05:49:07;9.53;;;8.63;;
8046;SDS011;67150;42.516;23.358;2023-06-26T05:51:35;9.70;;;8.90;;
8046;SDS011;67150;42.516;23.358;2023-06-26T05:54:04;8.83;;;8.13;;
8046;SDS011;67150;42.516;23.358;2023-06-26T05:56:32;9.80;;;8.83;;
8046;SDS011;67150;42.516;23.358;2023-06-26T05:59:00;9.47;;;8.57;;
8046;SDS011;67150;42.516;23.358;2023-06-26T06:01:28;9.23;;;8.43;;
8046;SDS011;67150;42.516;23.358;2023-06-26T06:03:56;9.87;;;8.97;;
8046;SDS011;67150;42.516;23.358;2023-06-26T06:06:23;9.27;;;8.50;;
8046;SDS011;67150;42.516;23.358;2023-06-26T06:08:50;9.43;;;8.53;;
8046;SDS011;67150;42.516;23.358;2023-06-26T06:11:19;9.60;;;8.70;;
8046;SDS011;67150;42.516;23.358;2023-06-26T06:13:48;9.00;;;8.20;;
8046;SDS011;67150;42.516;23.358;2023-06-26T06:16:16;9.23;;;8.47;;
8046;SDS011;67150;42.516;23.358;2023-06-26T06:18:43;9.20;;;8.40;;
8046;SDS011;67150;42.516;23.358;2023-06-26T06:21:11;9.50;;;8.70;;
8046;SDS011;67150;42.516;23.358;2023-06-26T06:23:38;9.10;;;8.37;;
8046;SDS011;67150;42.516;23.358;2023-06-26T06:26:05;8.57;;;7.77;;
8046;SDS011;67150;42.516;23.358;2023-06-26T06:28:34;8.90;;;8.17;;
8046;SDS011;67150;42.516;23.358;2023-06-26T06:31:01;9.10;;;8.20;;
8046;SDS011;67150;42.516;23.358;2023-06-26T06:33:28;8.97;;;8.27;;
8046;SDS011;67150;42.516;23.358;2023-06-26T06:35:56;9.20;;;8.37;;
8046;SDS011;67150;42.516;23.358;2023-06-26T06:38:23;9.07;;;8.27;;
8046;SDS011;67150;42.516;23.358;2023-06-26T06:40:50;8.90;;;8.03;;
8046;SDS011;67150;42.516;23.358;2023-06-26T06:43:18;8.93;;;8.17;;
8046;SDS011;67150;42.516;23.358;2023-06-26T06:45:47;8.70;;;7.90;;
8046;SDS011;67150;42.516;23.358;2023-06-26T06:48:14;8.87;;;8.07;;
8046;SDS011;67150;42.516;23.358;2023-06-26T06:50:41;8.70;;;7.90;;
8046;SDS011;67150;42.516;23.358;2023-06-26T06:53:08;8.70;;;7.90;;
8046;SDS011;67150;42.516;23.358;2023-06-26T06:55:36;8.10;;;7.50;;
8046;SDS011;67150;42.516;23.358;2023-06-26T06:58:03;8.50;;;7.80;;
8046;SDS011;67150;42.516;23.358;2023-06-26T07:00:31;8.87;;;8.07;;
8046;SDS011;67150;42.516;23.358;2023-06-26T07:02:59;8.47;;;7.77;;
8046;SDS011;67150;42.516;23.358;2023-06-26T07:05:27;7.97;;;7.33;;
8046;SDS011;67150;42.516;23.358;2023-06-26T07:07:54;8.37;;;7.60;;
8046;SDS011;67150;42.516;23.358;2023-06-26T07:10:21;8.20;;;7.50;;
8046;SDS011;67150;42.516;23.358;2023-06-26T07:12:48;7.67;;;6.97;;
8046;SDS011;67150;42.516;23.358;2023-06-26T07:15:16;8.33;;;7.63;;
8046;SDS011;67150;42.516;23.358;2023-06-26T07:17:43;8.03;;;7.33;;
8046;SDS011;67150;42.516;23.358;2023-06-26T07:20:12;8.30;;;7.60;;
8046;SDS011;67150;42.516;23.358;2023-06-26T07:22:41;7.93;;;7.20;;
8046;SDS011;67150;42.516;23.358;2023-06-26T07:25:10;8.03;;;7.33;;
8046;SDS011;67150;42.516;23.358;2023-06-26T07:27:37;7.57;;;6.97;;
8046;SDS011;67150;42.516;23.358;2023-06-26T07:30:05;8.47;;;7.77;;
8046;SDS011;67150;42.516;23.358;2023-06-26T07:32:34;7.53;;;6.90;;
8046;SDS011;67150;42.516;23.358;2023-06-26T07:35:02;7.53;;;6.93;;
8046;SDS011;67150;42.516;23.358;2023-06-26T07:37:31;7.93;;;7.23;;
8046;SDS011;67150;42.516;23.358;2023-06-26T07:39:59;7.83;;;7.23;;
8046;SDS011;67150;42.516;23.358;2023-06-26T07:42:26;8.00;;;7.30;;
8046;SDS011;67150;42.516;23.358;2023-06-26T07:44:53;7.80;;;7.10;;
8046;SDS011;67150;42.516;23.358;2023-06-26T07:47:20;8.03;;;7.33;;
8046;SDS011;67150;42.516;23.358;2023-06-26T07:49:48;7.63;;;7.03;;
8046;SDS011;67150;42.516;23.358;2023-06-26T07:52:15;7.57;;;6.97;;
8046;SDS011;67150;42.516;23.358;2023-06-26T07:54:44;7.87;;;7.20;;
8046;SDS011;67150;42.516;23.358;2023-06-26T07:57:11;7.43;;;6.83;;
8046;SDS011;67150;42.516;23.358;2023-06-26T07:59:38;7.47;;;6.77;;
8046;SDS011;67150;42.516;23.358;2023-06-26T08:02:06;7.60;;;6.80;;
8046;SDS011;67150;42.516;23.358;2023-06-26T08:04:34;7.10;;;6.50;;
8046;SDS011;67150;42.516;23.358;2023-06-26T08:07:01;7.07;;;6.47;;
8046;SDS011;67150;42.516;23.358;2023-06-26T08:09:30;6.97;;;6.37;;
8046;SDS011;67150;42.516;23.358;2023-06-26T08:11:59;6.80;;;6.27;;
8046;SDS011;67150;42.516;23.358;2023-06-26T08:14:26;7.37;;;6.63;;
8046;SDS011;67150;42.516;23.358;2023-06-26T08:16:53;6.40;;;5.80;;
8046;SDS011;67150;42.516;23.358;2023-06-26T08:19:21;6.20;;;5.70;;
8046;SDS011;67150;42.516;23.358;2023-06-26T08:21:48;7.00;;;6.20;;
8046;SDS011;67150;42.516;23.358;2023-06-26T08:24:15;7.10;;;6.50;;
8046;SDS011;67150;42.516;23.358;2023-06-26T08:26:44;6.87;;;6.27;;
8046;SDS011;67150;42.516;23.358;2023-06-26T08:29:13;6.60;;;6.00;;
8046;SDS011;67150;42.516;23.358;2023-06-26T08:31:41;5.70;;;5.20;;
8046;SDS011;67150;42.516;23.358;2023-06-26T08:34:09;6.23;;;5.63;;
8046;SDS011;67150;42.516;23.358;2023-06-26T08:36:37;6.57;;;5.80;;
8046;SDS011;67150;42.516;23.358;2023-06-26T08:39:04;5.97;;;5.53;;
8046;SDS011;67150;42.516;23.358;2023-06-26T08:41:31;5.83;;;5.43;;
8046;SDS011;67150;42.516;23.358;2023-06-26T08:43:59;6.27;;;5.70;;
8046;SDS011;67150;42.516;23.358;2023-06-26T08:46:27;5.87;;;5.47;;
8046;SDS011;67150;42.516;23.358;2023-06-26T08:48:56;6.20;;;5.70;;
8046;SDS011;67150;42.516;23.358;2023-06-26T08:51:28;5.87;;;5.37;;
8046;SDS011;67150;42.516;23.358;2023-06-26T08:53:57;6.07;;;5.57;;
8046;SDS011;67150;42.516;23.358;2023-06-26T08:56:27;6.00;;;5.40;;
8046;SDS011;67150;42.516;23.358;2023-06-26T08:58:58;6.10;;;5.60;;
8046;SDS011;67150;42.516;23.358;2023-06-26T09:01:28;5.40;;;5.00;;
8046;SDS011;67150;42.516;23.358;2023-06-26T09:03:55;7.33;;;5.93;;
8046;SDS011;67150;42.516;23.358;2023-06-26T09:06:22;5.83;;;5.33;;
8046;SDS011;67150;42.516;23.358;2023-06-26T09:08:50;6.00;;;5.50;;
8046;SDS011;67150;42.516;23.358;2023-06-26T09:11:17;7.07;;;5.53;;
8046;SDS011;67150;42.516;23.358;2023-06-26T09:13:44;5.50;;;5.10;;
8046;SDS011;67150;42.516;23.358;2023-06-26T09:16:13;5.97;;;5.47;;
8046;SDS011;67150;42.516;23.358;2023-06-26T09:18:42;5.80;;;5.40;;
8046;SDS011;67150;42.516;23.358;2023-06-26T09:21:09;6.23;;;5.63;;
8046;SDS011;67150;42.516;23.358;2023-06-26T09:23:39;5.83;;;5.23;;
8046;SDS011;67150;42.516;23.358;2023-06-26T09:26:07;5.73;;;5.23;;
8046;SDS011;67150;42.516;23.358;2023-06-26T09:28:34;6.00;;;5.40;;
8046;SDS011;67150;42.516;23.358;2023-06-26T09:31:02;5.80;;;5.30;;
8046;SDS011;67150;42.516;23.358;2023-06-26T09:33:33;6.00;;;5.50;;
8046;SDS011;67150;42.516;23.358;2023-06-26T09:36:06;5.90;;;5.40;;
8046;SDS011;67150;42.516;23.358;2023-06-26T09:38:35;6.67;;;6.07;;
8046;SDS011;67150;42.516;23.358;2023-06-26T09:41:03;5.73;;;5.23;;
8046;SDS011;67150;42.516;23.358;2023-06-26T09:43:30;6.70;;;5.97;;
8046;SDS011;67150;42.516;23.358;2023-06-26T09:45:58;5.70;;;5.20;;
8046;SDS011;67150;42.516;23.358;2023-06-26T09:48:27;6.93;;;5.97;;
8046;SDS011;67150;42.516;23.358;2023-06-26T09:50:55;6.53;;;5.80;;
8046;SDS011;67150;42.516;23.358;2023-06-26T09:53:24;6.33;;;5.73;;
8046;SDS011;67150;42.516;23.358;2023-06-26T09:55:52;6.10;;;5.20;;
8046;SDS011;67150;42.516;23.358;2023-06-26T09:58:20;6.10;;;5.60;;
8046;SDS011;67150;42.516;23.358;2023-06-26T10:00:50;5.80;;;5.30;;
8046;SDS011;67150;42.516;23.358;2023-06-26T10:03:18;6.03;;;5.53;;
8046;SDS011;67150;42.516;23.358;2023-06-26T10:05:48;5.93;;;5.43;;
8046;SDS011;67150;42.516;23.358;2023-06-26T10:08:16;6.50;;;5.90;;
8046;SDS011;67150;42.516;23.358;2023-06-26T10:10:45;5.70;;;5.20;;
8046;SDS011;67150;42.516;23.358;2023-06-26T10:13:15;6.00;;;5.50;;
8046;SDS011;67150;42.516;23.358;2023-06-26T10:15:47;6.70;;;5.30;;
8046;SDS011;67150;42.516;23.358;2023-06-26T10:18:17;5.73;;;5.23;;
8046;SDS011;67150;42.516;23.358;2023-06-26T10:20:48;6.00;;;5.43;;
8046;SDS011;67150;42.516;23.358;2023-06-26T10:23:20;5.80;;;5.30;;
8046;SDS011;67150;42.516;23.358;2023-06-26T10:25:52;5.83;;;5.33;;
8046;SDS011;67150;42.516;23.358;2023-06-26T10:28:22;5.40;;;4.90;;
8046;SDS011;67150;42.516;23.358;2023-06-26T10:30:50;5.90;;;5.40;;
8046;SDS011;67150;42.516;23.358;2023-06-26T10:33:18;5.67;;;5.27;;
8046;SDS011;67150;42.516;23.358;2023-06-26T10:35:47;5.67;;;5.27;;
8046;SDS011;67150;42.516;23.358;2023-06-26T10:38:14;6.10;;;5.50;;
8046;SDS011;67150;42.516;23.358;2023-06-26T10:40:42;5.80;;;5.30;;
8046;SDS011;67150;42.516;23.358;2023-06-26T10:43:13;6.10;;;5.50;;
8046;SDS011;67150;42.516;23.358;2023-06-26T10:45:45;5.43;;;5.03;;
8046;SDS011;67150;42.516;23.358;2023-06-26T10:48:17;6.20;;;5.60;;
8046;SDS011;67150;42.516;23.358;2023-06-26T10:50:46;5.70;;;5.20;;
8046;SDS011;67150;42.516;23.358;2023-06-26T10:53:15;5.50;;;5.10;;
8046;SDS011;67150;42.516;23.358;2023-06-26T10:55:51;6.33;;;5.83;;
8046;SDS011;67150;42.516;23.358;2023-06-26T11:01:19;5.97;;;5.47;;
8046;SDS011;67150;42.516;23.358;2023-06-26T11:03:49;5.60;;;5.10;;
8046;SDS011;67150;42.516;23.358;2023-06-26T11:06:31;6.13;;;5.53;;
8046;SDS011;67150;42.516;23.358;2023-06-26T11:09:00;5.90;;;5.40;;
8046;SDS011;67150;42.516;23.358;2023-06-26T11:14:31;6.10;;;5.60;;
8046;SDS011;67150;42.516;23.358;2023-06-26T11:17:02;6.17;;;5.67;;
8046;SDS011;67150;42.516;23.358;2023-06-26T11:19:30;6.40;;;5.70;;
8046;SDS011;67150;42.516;23.358;2023-06-26T11:21:58;6.10;;;5.60;;
8046;SDS011;67150;42.516;23.358;2023-06-26T11:24:26;5.90;;;5.50;;
8046;SDS011;67150;42.516;23.358;2023-06-26T11:26:59;6.00;;;5.50;;
8046;SDS011;67150;42.516;23.358;2023-06-26T11:29:30;6.43;;;5.87;;
8046;SDS011;67150;42.516;23.358;2023-06-26T11:32:02;6.10;;;5.60;;
8046;SDS011;67150;42.516;23.358;2023-06-26T11:34:32;5.77;;;5.00;;
8046;SDS011;67150;42.516;23.358;2023-06-26T11:37:00;6.00;;;5.50;;
8046;SDS011;67150;42.516;23.358;2023-06-26T11:39:30;6.00;;;5.50;;
8046;SDS011;67150;42.516;23.358;2023-06-26T11:41:58;5.90;;;5.40;;
8046;SDS011;67150;42.516;23.358;2023-06-26T11:44:29;6.13;;;5.63;;
8046;SDS011;67150;42.516;23.358;2023-06-26T11:46:58;6.47;;;5.87;;
8046;SDS011;67150;42.516;23.358;2023-06-26T11:49:25;6.03;;;5.53;;
8046;SDS011;67150;42.516;23.358;2023-06-26T11:51:55;6.00;;;5.50;;
8046;SDS011;67150;42.516;23.358;2023-06-26T11:54:23;5.90;;;5.40;;
8046;SDS011;67150;42.516;23.358;2023-06-26T11:56:51;6.13;;;5.30;;
8046;SDS011;67150;42.516;23.358;2023-06-26T11:59:21;6.03;;;5.53;;
8046;SDS011;67150;42.516;23.358;2023-06-26T12:01:51;6.10;;;5.60;;
8046;SDS011;67150;42.516;23.358;2023-06-26T12:04:19;6.07;;;5.57;;
8046;SDS011;67150;42.516;23.358;2023-06-26T12:06:47;6.43;;;5.83;;
8046;SDS011;67150;42.516;23.358;2023-06-26T12:09:17;6.53;;;5.90;;
8046;SDS011;67150;42.516;23.358;2023-06-26T12:11:46;5.70;;;5.30;;
8046;SDS011;67150;42.516;23.358;2023-06-26T12:14:19;6.20;;;5.70;;
8046;SDS011;67150;42.516;23.358;2023-06-26T12:16:47;5.97;;;5.37;;
8046;SDS011;67150;42.516;23.358;2023-06-26T12:19:16;6.67;;;6.07;;
8046;SDS011;67150;42.516;23.358;2023-06-26T12:21:45;5.80;;;5.30;;
8046;SDS011;67150;42.516;23.358;2023-06-26T12:24:17;6.40;;;5.90;;
8046;SDS011;67150;42.516;23.358;2023-06-26T12:26:47;6.13;;;5.63;;
8046;SDS011;67150;42.516;23.358;2023-06-26T12:29:19;6.63;;;5.90;;
8046;SDS011;67150;42.516;23.358;2023-06-26T12:31:49;5.83;;;5.43;;
8046;SDS011;67150;42.516;23.358;2023-06-26T12:34:20;6.33;;;5.83;;
8046;SDS011;67150;42.516;23.358;2023-06-26T12:36:48;6.73;;;6.13;;
8046;SDS011;67150;42.516;23.358;2023-06-26T12:39:17;6.53;;;6.03;;
8046;SDS011;67150;42.516;23.358;2023-06-26T12:41:47;5.87;;;5.37;;
8046;SDS011;67150;42.516;23.358;2023-06-26T12:44:21;6.07;;;5.57;;
8046;SDS011;67150;42.516;23.358;2023-06-26T12:46:54;6.63;;;6.03;;
8046;SDS011;67150;42.516;23.358;2023-06-26T12:49:31;6.20;;;5.70;;
8046;SDS011;67150;42.516;23.358;2023-06-26T12:52:00;6.13;;;5.63;;
8046;SDS011;67150;42.516;23.358;2023-06-26T12:54:28;6.50;;;5.90;;
8046;SDS011;67150;42.516;23.358;2023-06-26T12:56:55;6.03;;;5.53;;
8046;SDS011;67150;42.516;23.358;2023-06-26T12:59:23;6.60;;;5.80;;
8046;SDS011;67150;42.516;23.358;2023-06-26T13:01:50;5.80;;;5.30;;
8046;SDS011;67150;42.516;23.358;2023-06-26T13:04:18;6.47;;;5.97;;
8046;SDS011;67150;42.516;23.358;2023-06-26T13:06:47;6.43;;;5.93;;
8046;SDS011;67150;42.516;23.358;2023-06-26T13:09:15;6.37;;;5.87;;
8046;SDS011;67150;42.516;23.358;2023-06-26T13:11:42;6.50;;;6.00;;
8046;SDS011;67150;42.516;23.358;2023-06-26T13:14:10;6.40;;;5.90;;
8046;SDS011;67150;42.516;23.358;2023-06-26T13:16:37;6.33;;;5.83;;
8046;SDS011;67150;42.516;23.358;2023-06-26T13:19:04;7.03;;;6.37;;
8046;SDS011;67150;42.516;23.358;2023-06-26T13:21:32;6.10;;;5.60;;
8046;SDS011;67150;42.516;23.358;2023-06-26T13:24:01;6.40;;;5.80;;
8046;SDS011;67150;42.516;23.358;2023-06-26T13:26:30;6.70;;;6.10;;
8046;SDS011;67150;42.516;23.358;2023-06-26T13:28:57;6.43;;;5.90;;
8046;SDS011;67150;42.516;23.358;2023-06-26T13:31:25;6.40;;;5.90;;
8046;SDS011;67150;42.516;23.358;2023-06-26T13:33:53;6.70;;;6.10;;
8046;SDS011;67150;42.516;23.358;2023-06-26T13:36:20;6.80;;;6.20;;
8046;SDS011;67150;42.516;23.358;2023-06-26T13:38:47;6.73;;;6.13;;
8046;SDS011;67150;42.516;23.358;2023-06-26T13:41:22;6.30;;;5.80;;
8046;SDS011;67150;42.516;23.358;2023-06-26T13:43:50;6.37;;;5.83;;
8046;SDS011;67150;42.516;23.358;2023-06-26T13:46:17;6.57;;;6.00;;
8046;SDS011;67150;42.516;23.358;2023-06-26T13:48:45;5.80;;;5.40;;
8046;SDS011;67150;42.516;23.358;2023-06-26T13:51:12;6.80;;;6.20;;
8046;SDS011;67150;42.516;23.358;2023-06-26T13:53:39;6.50;;;6.00;;
8046;SDS011;67150;42.516;23.358;2023-06-26T13:56:10;6.70;;;6.10;;
8046;SDS011;67150;42.516;23.358;2023-06-26T13:58:38;6.23;;;5.70;;
8046;SDS011;67150;42.516;23.358;2023-06-26T14:01:06;6.77;;;6.20;;
8046;SDS011;67150;42.516;23.358;2023-06-26T14:03:33;6.90;;;6.30;;
8046;SDS011;67150;42.516;23.358;2023-06-26T14:06:00;6.40;;;5.90;;
8046;SDS011;67150;42.516;23.358;2023-06-26T14:08:28;6.33;;;5.73;;
8046;SDS011;67150;42.516;23.358;2023-06-26T14:10:55;6.77;;;6.17;;
8046;SDS011;67150;42.516;23.358;2023-06-26T14:13:22;6.23;;;5.73;;
8046;SDS011;67150;42.516;23.358;2023-06-26T14:15:51;6.40;;;5.80;;
8046;SDS011;67150;42.516;23.358;2023-06-26T14:18:19;6.23;;;5.70;;
8046;SDS011;67150;42.516;23.358;2023-06-26T14:20:49;6.50;;;5.90;;
8046;SDS011;67150;42.516;23.358;2023-06-26T14:23:16;6.23;;;5.73;;
8046;SDS011;67150;42.516;23.358;2023-06-26T14:25:43;6.37;;;5.87;;
8046;SDS011;67150;42.516;23.358;2023-06-26T14:28:11;6.37;;;5.87;;
8046;SDS011;67150;42.516;23.358;2023-06-26T14:30:38;6.47;;;5.87;;
8046;SDS011;67150;42.516;23.358;2023-06-26T14:33:19;6.13;;;5.63;;
8046;SDS011;67150;42.516;23.358;2023-06-26T14:35:46;5.90;;;5.50;;
8046;SDS011;67150;42.516;23.358;2023-06-26T14:38:13;6.80;;;6.20;;
8046;SDS011;67150;42.516;23.358;2023-06-26T14:40:41;6.20;;;5.70;;
8046;SDS011;67150;42.516;23.358;2023-06-26T14:43:08;6.20;;;5.70;;
8046;SDS011;67150;42.516;23.358;2023-06-26T14:45:36;6.73;;;6.03;;
8046;SDS011;67150;42.516;23.358;2023-06-26T14:48:03;5.77;;;5.37;;
8046;SDS011;67150;42.516;23.358;2023-06-26T14:50:32;6.30;;;5.77;;
8046;SDS011;67150;42.516;23.358;2023-06-26T14:52:59;6.30;;;5.70;;
8046;SDS011;67150;42.516;23.358;2023-06-26T14:55:27;6.80;;;6.20;;
8046;SDS011;67150;42.516;23.358;2023-06-26T14:57:58;6.20;;;5.70;;
8046;SDS011;67150;42.516;23.358;2023-06-26T15:00:25;6.37;;;5.83;;
8046;SDS011;67150;42.516;23.358;2023-06-26T15:02:52;5.70;;;5.30;;
8046;SDS011;67150;42.516;23.358;2023-06-26T15:05:20;6.23;;;5.73;;
8046;SDS011;67150;42.516;23.358;2023-06-26T15:07:49;6.20;;;5.70;;